Time,TemperatureF,DewpointF,PressureIn,WindDirection,WindDirectionDegrees,WindSpeedMPH,WindSpeedGustMPH,Humidity,HourlyPrecipIn,Conditions,Clouds,dailyrainin,SoftwareType,DateUTC
2013-12-12 00:00:00,30.4,19.0,30.20,South,175,5.0,44.0,62,0.00,,---,0.00,VWS V12.07,2013-12-12 08:00:00,
2013-12-12 00:01:00,30.4,19.0,30.20,South,188,7.0,44.0,62,0.00,,---,0.00,VWS V12.07,2013-12-12 08:01:00,
2013-12-12 00:03:00,30.3,18.5,30.20,SSW,193,3.0,44.0,61,0.00,,---,0.00,VWS V12.07,2013-12-12 08:03:00,
2013-12-12 00:05:00,30.1,19.0,30.20,SSW,193,5.0,44.0,63,0.00,,---,0.00,VWS V12.07,2013-12-12 08:05:00,
2013-12-12 00:06:00,30.1,19.0,30.20,SSE,165,5.0,44.0,63,0.00,,---,0.00,VWS V12.07,2013-12-12 08:06:00,
2013-12-12 00:07:00,30.1,18.3,30.21,SSW,193,5.0,44.0,61,0.00,,---,0.00,VWS V12.07,2013-12-12 08:07:00,
2013-12-12 00:08:00,30.0,19.0,30.21,SSW,193,2.0,44.0,63,0.00,,---,0.00,VWS V12.07,2013-12-12 08:08:00,
2013-12-12 00:10:00,29.8,18.8,30.21,SSW,193,2.0,44.0,63,0.00,,---,0.00,VWS V12.07,2013-12-12 08:10:00,
2013-12-12 00:11:00,29.7,19.0,30.21,South,169,2.0,44.0,64,0.00,,---,0.00,VWS V12.07,2013-12-12 08:11:00,
2013-12-12 00:13:00,29.7,18.7,30.21,South,176,7.0,44.0,63,0.00,,---,0.00,VWS V12.07,2013-12-12 08:13:00,
2013-12-12 00:14:00,29.7,18.7,30.21,South,181,5.0,44.0,63,0.00,,---,0.00,VWS V12.07,2013-12-12 08:14:00,
2013-12-12 00:15:00,29.5,18.8,30.21,SSE,168,4.0,44.0,64,0.00,,---,0.00,VWS V12.07,2013-12-12 08:15:00,
2013-12-12 00:16:00,29.4,18.7,30.21,SE,127,3.0,44.0,64,0.00,,---,0.00,VWS V12.07,2013-12-12 08:16:00,
2013-12-12 00:17:00,29.4,18.7,30.21,SSW,199,3.0,44.0,64,0.00,,---,0.00,VWS V12.07,2013-12-12 08:17:00,
2013-12-12 00:18:00,29.3,18.6,30.21,SSW,199,4.0,44.0,64,0.00,,---,0.00,VWS V12.07,2013-12-12 08:18:00,
2013-12-12 00:19:00,29.3,18.6,30.21,SSW,199,2.0,44.0,64,0.00,,---,0.00,VWS V12.07,2013-12-12 08:19:00,
2013-12-12 00:20:00,29.1,18.5,30.21,SSE,162,4.0,44.0,64,0.00,,---,0.00,VWS V12.07,2013-12-12 08:20:00,
2013-12-12 00:21:00,29.1,18.8,30.20,SSE,162,6.0,44.0,65,0.00,,---,0.00,VWS V12.07,2013-12-12 08:21:00,
2013-12-12 00:23:00,29.1,18.8,30.20,South,174,4.0,44.0,65,0.00,,---,0.00,VWS V12.07,2013-12-12 08:23:00,
2013-12-12 00:24:00,29.1,18.5,30.20,South,174,2.0,44.0,64,0.00,,---,0.00,VWS V12.07,2013-12-12 08:24:00,
2013-12-12 00:25:00,29.0,18.7,30.20,South,178,2.0,44.0,65,0.00,,---,0.00,VWS V12.07,2013-12-12 08:25:00,
2013-12-12 00:27:00,29.0,18.7,30.20,SSE,165,5.0,44.0,65,0.00,,---,0.00,VWS V12.07,2013-12-12 08:27:00,
2013-12-12 00:28:00,29.0,19.1,30.20,South,169,2.0,44.0,66,0.00,,---,0.00,VWS V12.07,2013-12-12 08:28:00,
2013-12-12 00:30:00,28.8,18.9,30.20,South,171,3.0,44.0,66,0.00,,---,0.00,VWS V12.07,2013-12-12 08:30:00,
2013-12-12 00:33:00,28.8,18.2,30.20,SSE,160,3.0,44.0,64,0.00,,---,0.00,VWS V12.07,2013-12-12 08:33:00,
2013-12-12 00:34:00,29.0,18.4,30.20,South,169,5.0,44.0,64,0.00,,---,0.00,VWS V12.07,2013-12-12 08:34:00,
2013-12-12 00:35:00,29.0,18.4,30.20,South,175,3.0,44.0,64,0.00,,---,0.00,VWS V12.07,2013-12-12 08:35:00,
2013-12-12 00:36:00,29.0,18.4,30.20,South,175,3.0,44.0,64,0.00,,---,0.00,VWS V12.07,2013-12-12 08:36:00,
2013-12-12 00:38:00,29.0,18.4,30.20,SSW,199,5.0,44.0,64,0.00,,---,0.00,VWS V12.07,2013-12-12 08:38:00,
2013-12-12 00:39:00,28.8,19.2,30.20,SSW,198,1.0,44.0,67,0.00,,---,0.00,VWS V12.07,2013-12-12 08:39:00,
2013-12-12 00:40:00,28.8,19.2,30.20,SSW,198,1.0,44.0,67,0.00,,---,0.00,VWS V12.07,2013-12-12 08:40:00,
2013-12-12 00:41:00,28.8,19.2,30.20,SSW,198,1.0,44.0,67,0.00,,---,0.00,VWS V12.07,2013-12-12 08:41:00,
2013-12-12 00:42:00,28.7,19.1,30.20,SSW,196,3.0,44.0,67,0.00,,---,0.00,VWS V12.07,2013-12-12 08:42:00,
2013-12-12 00:43:00,28.7,18.4,30.20,South,176,3.0,44.0,65,0.00,,---,0.00,VWS V12.07,2013-12-12 08:43:00,
2013-12-12 00:45:00,28.7,18.4,30.20,South,176,5.0,44.0,65,0.00,,---,0.00,VWS V12.07,2013-12-12 08:45:00,
2013-12-12 00:46:00,28.8,18.2,30.20,South,169,4.0,44.0,64,0.00,,---,0.00,VWS V12.07,2013-12-12 08:46:00,
2013-12-12 00:47:00,28.8,18.2,30.20,SSE,167,2.0,44.0,64,0.00,,---,0.00,VWS V12.07,2013-12-12 08:47:00,
2013-12-12 00:48:00,28.8,18.2,30.20,SSE,167,0.0,44.0,64,0.00,,---,0.00,VWS V12.07,2013-12-12 08:48:00,
2013-12-12 00:49:00,28.8,18.2,30.20,SSW,212,5.0,44.0,64,0.00,,---,0.00,VWS V12.07,2013-12-12 08:49:00,
2013-12-12 00:50:00,29.0,18.4,30.20,South,184,5.0,44.0,64,0.00,,---,0.00,VWS V12.07,2013-12-12 08:50:00,
2013-12-12 00:51:00,29.0,18.4,30.20,South,184,2.0,44.0,64,0.00,,---,0.00,VWS V12.07,2013-12-12 08:51:00,
2013-12-12 00:52:00,28.8,18.2,30.19,South,181,3.0,44.0,64,0.00,,---,0.00,VWS V12.07,2013-12-12 08:52:00,
2013-12-12 00:53:00,28.8,18.2,30.19,South,182,3.0,44.0,64,0.00,,---,0.00,VWS V12.07,2013-12-12 08:53:00,
2013-12-12 00:54:00,28.8,18.2,30.19,South,182,0.0,44.0,64,0.00,,---,0.00,VWS V12.07,2013-12-12 08:54:00,
2013-12-12 00:56:00,28.7,18.4,30.19,South,182,2.0,44.0,65,0.00,,---,0.00,VWS V12.07,2013-12-12 08:56:00,
2013-12-12 00:57:00,28.7,18.4,30.19,South,182,2.0,44.0,65,0.00,,---,0.00,VWS V12.07,2013-12-12 08:57:00,
2013-12-12 00:58:00,28.7,18.4,30.19,South,174,5.0,44.0,65,0.00,,---,0.00,VWS V12.07,2013-12-12 08:58:00,
2013-12-12 01:00:00,28.4,18.1,30.19,South,189,3.0,44.0,65,0.00,,---,0.00,VWS V12.07,2013-12-12 09:00:00,
2013-12-12 01:02:00,28.4,18.1,30.19,SSW,192,3.0,44.0,65,0.00,,---,0.00,VWS V12.07,2013-12-12 09:02:00,
2013-12-12 01:03:00,28.2,18.0,30.19,SSW,192,2.0,44.0,65,0.00,,---,0.00,VWS V12.07,2013-12-12 09:03:00,
2013-12-12 01:04:00,28.2,18.0,30.19,SSW,192,2.0,44.0,65,0.00,,---,0.00,VWS V12.07,2013-12-12 09:04:00,
2013-12-12 01:05:00,28.2,18.0,30.19,SSW,200,5.0,44.0,65,0.00,,---,0.00,VWS V12.07,2013-12-12 09:05:00,
2013-12-12 01:07:00,28.2,17.6,30.19,South,182,1.0,44.0,64,0.00,,---,0.00,VWS V12.07,2013-12-12 09:07:00,
2013-12-12 01:08:00,28.2,18.0,30.19,South,182,2.0,44.0,65,0.00,,---,0.00,VWS V12.07,2013-12-12 09:08:00,
2013-12-12 01:09:00,28.2,18.0,30.19,South,184,2.0,44.0,65,0.00,,---,0.00,VWS V12.07,2013-12-12 09:09:00,
2013-12-12 01:10:00,24.7,0.0,30.19,South,180,0.0,0.0,0,0.00,,---,0.00,VWS V12.07,2013-12-12 09:10:00,
2013-12-12 01:11:00,28.2,18.0,30.19,SSE,151,7.0,44.0,65,0.00,,---,0.00,VWS V12.07,2013-12-12 09:11:00,
2013-12-12 01:12:00,27.9,17.7,30.19,SSE,154,2.0,44.0,65,0.00,,---,0.00,VWS V12.07,2013-12-12 09:12:00,
2013-12-12 01:13:00,27.9,17.7,30.19,SSE,154,2.0,44.0,65,0.00,,---,0.00,VWS V12.07,2013-12-12 09:13:00,
2013-12-12 01:14:00,27.8,17.6,30.19,SSW,205,5.0,44.0,65,0.00,,---,0.00,VWS V12.07,2013-12-12 09:14:00,
2013-12-12 01:15:00,27.8,17.6,30.19,SSW,192,5.0,44.0,65,0.00,,---,0.00,VWS V12.07,2013-12-12 09:15:00,
2013-12-12 01:16:00,27.8,17.6,30.19,South,169,2.0,44.0,65,0.00,,---,0.00,VWS V12.07,2013-12-12 09:16:00,
2013-12-12 01:17:00,27.8,17.6,30.19,South,174,2.0,44.0,65,0.00,,---,0.00,VWS V12.07,2013-12-12 09:17:00,
2013-12-12 01:18:00,27.8,17.6,30.19,South,174,2.0,44.0,65,0.00,,---,0.00,VWS V12.07,2013-12-12 09:18:00,
2013-12-12 01:19:00,27.8,17.6,30.19,South,174,2.0,44.0,65,0.00,,---,0.00,VWS V12.07,2013-12-12 09:19:00,
2013-12-12 01:20:00,27.8,17.6,30.19,South,189,6.0,44.0,65,0.00,,---,0.00,VWS V12.07,2013-12-12 09:20:00,
2013-12-12 01:21:00,27.8,17.6,30.19,South,178,5.0,44.0,65,0.00,,---,0.00,VWS V12.07,2013-12-12 09:21:00,
2013-12-12 01:22:00,27.8,17.6,30.19,South,178,5.0,44.0,65,0.00,,---,0.00,VWS V12.07,2013-12-12 09:22:00,
2013-12-12 01:23:00,27.8,17.6,30.19,South,178,5.0,44.0,65,0.00,,---,0.00,VWS V12.07,2013-12-12 09:23:00,
2013-12-12 01:24:00,27.8,17.6,30.19,South,189,4.0,44.0,65,0.00,,---,0.00,VWS V12.07,2013-12-12 09:24:00,
2013-12-12 01:26:00,27.8,17.6,30.19,South,189,4.0,44.0,65,0.00,,---,0.00,VWS V12.07,2013-12-12 09:26:00,
2013-12-12 01:27:00,27.8,17.6,30.19,South,182,5.0,44.0,65,0.00,,---,0.00,VWS V12.07,2013-12-12 09:27:00,
2013-12-12 01:28:00,27.8,17.6,30.19,SSE,160,2.0,44.0,65,0.00,,---,0.00,VWS V12.07,2013-12-12 09:28:00,
2013-12-12 01:30:00,27.5,17.3,30.19,South,185,3.0,44.0,65,0.00,,---,0.00,VWS V12.07,2013-12-12 09:30:00,
2013-12-12 01:31:00,27.5,17.3,30.19,South,188,3.0,44.0,65,0.00,,---,0.00,VWS V12.07,2013-12-12 09:31:00,
2013-12-12 01:32:00,27.5,17.3,30.19,South,188,3.0,44.0,65,0.00,,---,0.00,VWS V12.07,2013-12-12 09:32:00,
2013-12-12 01:33:00,27.5,17.3,30.19,South,174,3.0,44.0,65,0.00,,---,0.00,VWS V12.07,2013-12-12 09:33:00,
2013-12-12 01:35:00,27.6,17.4,30.19,South,179,10.0,44.0,65,0.00,,---,0.00,VWS V12.07,2013-12-12 09:35:00,
2013-12-12 01:37:00,27.6,17.4,30.18,South,179,10.0,44.0,65,0.00,,---,0.00,VWS V12.07,2013-12-12 09:37:00,
2013-12-12 01:38:00,27.6,17.4,30.18,South,179,4.0,44.0,65,0.00,,---,0.00,VWS V12.07,2013-12-12 09:38:00,
2013-12-12 01:39:00,27.6,17.4,30.18,South,181,4.0,44.0,65,0.00,,---,0.00,VWS V12.07,2013-12-12 09:39:00,
2013-12-12 01:40:00,24.1,0.0,30.19,South,180,9.0,12.0,0,0.00,,---,0.00,VWS V12.07,2013-12-12 09:40:00,
2013-12-12 01:41:00,27.6,17.4,30.18,South,179,3.0,44.0,65,0.00,,---,0.00,VWS V12.07,2013-12-12 09:41:00,
2013-12-12 01:42:00,27.6,17.4,30.18,South,179,3.0,44.0,65,0.00,,---,0.00,VWS V12.07,2013-12-12 09:42:00,
2013-12-12 01:43:00,27.3,17.1,30.18,SSW,200,12.0,44.0,65,0.00,,---,0.00,VWS V12.07,2013-12-12 09:43:00,
2013-12-12 01:44:00,27.3,17.1,30.18,SSW,200,12.0,44.0,65,0.00,,---,0.00,VWS V12.07,2013-12-12 09:44:00,
2013-12-12 01:47:00,27.3,17.1,30.18,SSE,160,7.0,44.0,65,0.00,,---,0.00,VWS V12.07,2013-12-12 09:47:00,
2013-12-12 01:49:00,27.5,17.6,30.18,South,191,11.0,44.0,66,0.00,,---,0.00,VWS V12.07,2013-12-12 09:49:00,
2013-12-12 01:50:00,27.5,17.6,30.18,South,191,11.0,44.0,66,0.00,,---,0.00,VWS V12.07,2013-12-12 09:50:00,
2013-12-12 01:52:00,27.8,17.9,30.18,South,186,6.0,44.0,66,0.00,,---,0.00,VWS V12.07,2013-12-12 09:52:00,
2013-12-12 01:53:00,27.8,17.9,30.18,South,186,6.0,44.0,66,0.00,,---,0.00,VWS V12.07,2013-12-12 09:53:00,
2013-12-12 01:54:00,27.8,17.9,30.18,South,186,6.0,44.0,66,0.00,,---,0.00,VWS V12.07,2013-12-12 09:54:00,
2013-12-12 01:55:00,27.8,17.9,30.18,South,186,6.0,44.0,66,0.00,,---,0.00,VWS V12.07,2013-12-12 09:55:00,
2013-12-12 01:57:00,27.6,17.7,30.18,South,191,8.0,44.0,66,0.00,,---,0.00,VWS V12.07,2013-12-12 09:57:00,
2013-12-12 01:58:00,27.8,17.9,30.18,South,186,8.0,44.0,66,0.00,,---,0.00,VWS V12.07,2013-12-12 09:58:00,
2013-12-12 02:00:00,27.8,17.9,30.18,South,176,8.0,44.0,66,0.00,,---,0.00,VWS V12.07,2013-12-12 10:00:00,
2013-12-12 02:03:00,27.8,17.9,30.18,SSE,168,7.0,44.0,66,0.00,,---,0.00,VWS V12.07,2013-12-12 10:03:00,
2013-12-12 02:04:00,27.8,17.9,30.18,SSE,168,7.0,44.0,66,0.00,,---,0.00,VWS V12.07,2013-12-12 10:04:00,
2013-12-12 02:05:00,27.8,17.9,30.18,SSE,168,7.0,44.0,66,0.00,,---,0.00,VWS V12.07,2013-12-12 10:05:00,
2013-12-12 02:06:00,27.8,17.9,30.18,SSE,168,7.0,44.0,66,0.00,,---,0.00,VWS V12.07,2013-12-12 10:06:00,
2013-12-12 02:08:00,27.0,17.2,30.18,SSE,164,3.0,44.0,66,0.00,,---,0.00,VWS V12.07,2013-12-12 10:08:00,
2013-12-12 02:09:00,27.0,17.2,30.18,SSE,164,3.0,44.0,66,0.00,,---,0.00,VWS V12.07,2013-12-12 10:09:00,
2013-12-12 02:10:00,23.8,0.0,30.19,SSW,202,9.0,12.0,0,0.00,,---,0.00,VWS V12.07,2013-12-12 10:10:00,
2013-12-12 02:11:00,27.0,17.2,30.18,SSE,164,1.0,44.0,66,0.00,,---,0.00,VWS V12.07,2013-12-12 10:11:00,
2013-12-12 02:13:00,27.0,17.2,30.18,SSE,168,3.0,44.0,66,0.00,,---,0.00,VWS V12.07,2013-12-12 10:13:00,
2013-12-12 02:14:00,27.0,17.2,30.18,SSE,168,3.0,44.0,66,0.00,,---,0.00,VWS V12.07,2013-12-12 10:14:00,
2013-12-12 02:16:00,27.0,17.2,30.18,South,171,0.0,44.0,66,0.00,,---,0.00,VWS V12.07,2013-12-12 10:16:00,
2013-12-12 02:19:00,26.3,16.5,30.18,South,176,6.0,44.0,66,0.00,,---,0.00,VWS V12.07,2013-12-12 10:19:00,
2013-12-12 02:20:00,23.8,0.0,30.20,South,180,9.0,13.0,0,0.00,,---,0.00,VWS V12.07,2013-12-12 10:20:00,
2013-12-12 02:21:00,26.3,16.5,30.18,South,179,7.0,44.0,66,0.00,,---,0.00,VWS V12.07,2013-12-12 10:21:00,
2013-12-12 02:22:00,26.3,16.5,30.19,South,179,7.0,44.0,66,0.00,,---,0.00,VWS V12.07,2013-12-12 10:22:00,
2013-12-12 02:24:00,26.3,16.9,30.19,South,178,5.0,44.0,67,0.00,,---,0.00,VWS V12.07,2013-12-12 10:24:00,
2013-12-12 02:26:00,26.3,16.9,30.19,South,182,7.0,44.0,67,0.00,,---,0.00,VWS V12.07,2013-12-12 10:26:00,
2013-12-12 02:27:00,26.3,16.9,30.19,South,182,7.0,44.0,67,0.00,,---,0.00,VWS V12.07,2013-12-12 10:27:00,
2013-12-12 02:28:00,26.3,16.9,30.19,South,182,7.0,44.0,67,0.00,,---,0.00,VWS V12.07,2013-12-12 10:28:00,
2013-12-12 02:29:00,26.3,16.9,30.19,SSE,165,5.0,44.0,67,0.00,,---,0.00,VWS V12.07,2013-12-12 10:29:00,
2013-12-12 02:30:00,27.0,17.5,30.19,South,181,8.0,44.0,67,0.00,,---,0.00,VWS V12.07,2013-12-12 10:30:00,
2013-12-12 02:31:00,27.0,17.5,30.19,South,181,8.0,44.0,67,0.00,,---,0.00,VWS V12.07,2013-12-12 10:31:00,
2013-12-12 02:33:00,27.0,17.5,30.19,SSE,167,10.0,44.0,67,0.00,,---,0.00,VWS V12.07,2013-12-12 10:33:00,
2013-12-12 02:34:00,27.0,17.5,30.19,SSW,192,9.0,44.0,67,0.00,,---,0.00,VWS V12.07,2013-12-12 10:34:00,
2013-12-12 02:36:00,27.0,17.5,30.19,SSW,192,9.0,44.0,67,0.00,,---,0.00,VWS V12.07,2013-12-12 10:36:00,
2013-12-12 02:37:00,27.0,17.5,30.19,South,178,7.0,44.0,67,0.00,,---,0.00,VWS V12.07,2013-12-12 10:37:00,
2013-12-12 02:39:00,27.0,17.5,30.19,South,176,7.0,44.0,67,0.00,,---,0.00,VWS V12.07,2013-12-12 10:39:00,
2013-12-12 02:40:00,27.0,17.5,30.19,South,188,5.0,44.0,67,0.00,,---,0.00,VWS V12.07,2013-12-12 10:40:00,
2013-12-12 02:41:00,27.0,17.5,30.19,South,188,5.0,44.0,67,0.00,,---,0.00,VWS V12.07,2013-12-12 10:41:00,
2013-12-12 02:42:00,26.7,17.2,30.19,SE,140,7.0,44.0,67,0.00,,---,0.00,VWS V12.07,2013-12-12 10:42:00,
2013-12-12 02:43:00,26.7,17.2,30.19,SE,140,7.0,44.0,67,0.00,,---,0.00,VWS V12.07,2013-12-12 10:43:00,
2013-12-12 02:44:00,26.7,17.2,30.19,SE,140,7.0,44.0,67,0.00,,---,0.00,VWS V12.07,2013-12-12 10:44:00,
2013-12-12 02:45:00,26.7,17.2,30.19,SE,140,7.0,44.0,67,0.00,,---,0.00,VWS V12.07,2013-12-12 10:45:00,
2013-12-12 02:46:00,26.4,16.9,30.19,South,179,7.0,44.0,67,0.00,,---,0.00,VWS V12.07,2013-12-12 10:46:00,
2013-12-12 02:47:00,26.4,16.9,30.19,South,174,7.0,44.0,67,0.00,,---,0.00,VWS V12.07,2013-12-12 10:47:00,
2013-12-12 02:48:00,26.4,16.9,30.19,South,174,7.0,44.0,67,0.00,,---,0.00,VWS V12.07,2013-12-12 10:48:00,
2013-12-12 02:49:00,26.4,16.9,30.19,South,174,7.0,44.0,67,0.00,,---,0.00,VWS V12.07,2013-12-12 10:49:00,
2013-12-12 02:50:00,26.3,16.9,30.19,South,176,7.0,44.0,67,0.00,,---,0.00,VWS V12.07,2013-12-12 10:50:00,
2013-12-12 02:51:00,26.3,16.9,30.20,South,174,6.0,44.0,67,0.00,,---,0.00,VWS V12.07,2013-12-12 10:51:00,
2013-12-12 02:52:00,26.3,16.9,30.20,South,174,5.0,44.0,67,0.00,,---,0.00,VWS V12.07,2013-12-12 10:52:00,
2013-12-12 02:53:00,26.3,16.5,30.20,South,171,6.0,44.0,66,0.00,,---,0.00,VWS V12.07,2013-12-12 10:53:00,
2013-12-12 02:55:00,26.3,16.5,30.20,South,171,6.0,44.0,66,0.00,,---,0.00,VWS V12.07,2013-12-12 10:55:00,
2013-12-12 02:56:00,26.3,16.5,30.20,SSE,167,6.0,44.0,66,0.00,,---,0.00,VWS V12.07,2013-12-12 10:56:00,
2013-12-12 02:57:00,26.3,16.5,30.20,South,184,7.0,44.0,66,0.00,,---,0.00,VWS V12.07,2013-12-12 10:57:00,
2013-12-12 02:59:00,26.3,16.5,30.20,SSW,198,10.0,44.0,66,0.00,,---,0.00,VWS V12.07,2013-12-12 10:59:00,
2013-12-12 03:00:00,25.8,16.0,30.20,SSW,193,10.0,44.0,66,0.00,,---,0.00,VWS V12.07,2013-12-12 11:00:00,
2013-12-12 03:01:00,25.8,16.0,30.20,SSW,193,10.0,44.0,66,0.00,,---,0.00,VWS V12.07,2013-12-12 11:01:00,
2013-12-12 03:02:00,25.8,16.0,30.20,SSW,193,10.0,44.0,66,0.00,,---,0.00,VWS V12.07,2013-12-12 11:02:00,
2013-12-12 03:04:00,25.8,16.0,30.20,SSW,203,11.0,44.0,66,0.00,,---,0.00,VWS V12.07,2013-12-12 11:04:00,
2013-12-12 03:06:00,25.8,16.0,30.20,South,175,7.0,44.0,66,0.00,,---,0.00,VWS V12.07,2013-12-12 11:06:00,
2013-12-12 03:08:00,25.8,16.0,30.20,South,175,7.0,44.0,66,0.00,,---,0.00,VWS V12.07,2013-12-12 11:08:00,
2013-12-12 03:10:00,25.8,16.0,30.20,South,175,7.0,44.0,66,0.00,,---,0.00,VWS V12.07,2013-12-12 11:10:00,
2013-12-12 03:11:00,25.8,16.0,30.20,South,175,7.0,44.0,66,0.00,,---,0.00,VWS V12.07,2013-12-12 11:11:00,
2013-12-12 03:12:00,25.4,15.6,30.20,South,191,8.0,44.0,66,0.00,,---,0.00,VWS V12.07,2013-12-12 11:12:00,
2013-12-12 03:13:00,25.4,15.6,30.20,South,191,8.0,44.0,66,0.00,,---,0.00,VWS V12.07,2013-12-12 11:13:00,
2013-12-12 03:14:00,25.4,15.6,30.20,SSW,198,6.0,44.0,66,0.00,,---,0.00,VWS V12.07,2013-12-12 11:14:00,
2013-12-12 03:16:00,24.7,15.0,30.20,South,189,7.0,44.0,66,0.00,,---,0.00,VWS V12.07,2013-12-12 11:16:00,
2013-12-12 03:17:00,24.7,15.0,30.20,SSW,200,6.0,44.0,66,0.00,,---,0.00,VWS V12.07,2013-12-12 11:17:00,
2013-12-12 03:18:00,24.7,15.0,30.20,South,191,10.0,44.0,66,0.00,,---,0.00,VWS V12.07,2013-12-12 11:18:00,
2013-12-12 03:20:00,24.7,16.3,30.20,South,172,8.0,44.0,70,0.00,,---,0.00,VWS V12.07,2013-12-12 11:20:00,
2013-12-12 03:22:00,24.7,16.3,30.20,South,172,8.0,44.0,70,0.00,,---,0.00,VWS V12.07,2013-12-12 11:22:00,
2013-12-12 03:23:00,24.7,16.3,30.20,South,172,8.0,44.0,70,0.00,,---,0.00,VWS V12.07,2013-12-12 11:23:00,
2013-12-12 03:30:00,22.5,14.2,30.23,South,180,10.0,18.0,70,0.00,,---,0.00,VWS V12.07,2013-12-12 11:30:00,
2013-12-12 03:40:00,21.1,12.9,30.23,SSW,202,10.0,14.0,70,0.00,,---,0.00,VWS V12.07,2013-12-12 11:40:00,
2013-12-12 03:50:00,20.6,13.0,30.25,South,180,7.0,11.0,72,0.00,,---,0.00,VWS V12.07,2013-12-12 11:50:00,
2013-12-12 04:00:00,20.3,12.7,30.24,South,180,8.0,12.0,72,0.00,,---,0.00,VWS V12.07,2013-12-12 12:00:00,
2013-12-12 04:10:00,22.7,14.7,30.24,South,180,8.0,11.0,71,0.00,,---,0.00,VWS V12.07,2013-12-12 12:10:00,
2013-12-12 04:20:00,23.8,14.8,30.24,SSW,202,9.0,14.0,68,0.00,,---,0.00,VWS V12.07,2013-12-12 12:20:00,
2013-12-12 04:30:00,25.3,15.2,30.23,SSW,202,10.0,13.0,65,0.00,,---,0.00,VWS V12.07,2013-12-12 12:30:00,
2013-12-12 04:40:00,25.8,15.7,30.23,SSW,202,6.0,8.0,65,0.00,,---,0.00,VWS V12.07,2013-12-12 12:40:00,
2013-12-12 04:50:00,26.3,16.1,30.23,South,180,8.0,12.0,65,0.00,,---,0.00,VWS V12.07,2013-12-12 12:50:00,
2013-12-12 05:00:00,26.6,16.4,30.23,SSW,202,7.0,8.0,65,0.00,,---,0.00,VWS V12.07,2013-12-12 13:00:00,
2013-12-12 05:10:00,27.0,15.7,30.23,South,180,9.0,20.0,62,0.00,,---,0.00,VWS V12.07,2013-12-12 13:10:00,
2013-12-12 05:20:00,27.2,15.9,30.23,South,180,9.0,18.0,62,0.00,,---,0.00,VWS V12.07,2013-12-12 13:20:00,
2013-12-12 05:30:00,27.2,16.3,30.23,South,180,8.0,14.0,63,0.00,,---,0.00,VWS V12.07,2013-12-12 13:30:00,
2013-12-12 05:40:00,27.5,15.8,30.23,South,180,10.0,19.0,61,0.00,,---,0.00,VWS V12.07,2013-12-12 13:40:00,
2013-12-12 05:50:00,28.5,16.0,30.23,South,180,10.0,17.0,59,0.00,,---,0.00,VWS V12.07,2013-12-12 13:50:00,
2013-12-12 06:00:00,28.7,15.8,30.22,South,180,10.0,17.0,58,0.00,,---,0.00,VWS V12.07,2013-12-12 14:00:00,
2013-12-12 06:10:00,28.8,15.5,30.22,SW,225,7.0,8.0,57,0.00,,---,0.00,VWS V12.07,2013-12-12 14:10:00,
2013-12-12 06:20:00,30.1,16.7,30.20,South,180,11.0,13.0,57,0.00,,---,0.00,VWS V12.07,2013-12-12 14:20:00,
2013-12-12 06:30:00,30.1,15.1,30.19,South,180,10.0,10.0,53,0.00,,---,0.00,VWS V12.07,2013-12-12 14:30:00,
2013-12-12 06:40:00,30.1,15.1,30.19,South,180,6.0,8.0,53,0.00,,---,0.00,VWS V12.07,2013-12-12 14:40:00,
2013-12-12 06:50:00,31.8,17.1,30.19,South,180,14.0,16.0,54,0.00,,---,0.00,VWS V12.07,2013-12-12 14:50:00,
2013-12-12 07:00:00,32.7,17.9,30.16,South,180,10.0,12.0,54,0.00,,---,0.00,VWS V12.07,2013-12-12 15:00:00,
2013-12-12 07:10:00,32.7,17.9,30.16,SSW,202,6.0,11.0,54,0.00,,---,0.00,VWS V12.07,2013-12-12 15:10:00,
2013-12-12 07:20:00,34.4,17.7,30.16,South,180,7.0,10.0,50,0.00,,---,0.00,VWS V12.07,2013-12-12 15:20:00,
2013-12-12 07:30:00,34.9,17.7,30.15,South,180,8.0,16.0,49,0.00,,---,0.00,VWS V12.07,2013-12-12 15:30:00,
2013-12-12 07:40:00,34.9,17.2,30.15,South,180,5.0,7.0,48,0.00,,---,0.00,VWS V12.07,2013-12-12 15:40:00,
2013-12-12 07:50:00,34.9,17.2,30.14,SSW,202,8.0,11.0,48,0.00,,---,0.00,VWS V12.07,2013-12-12 15:50:00,
2013-12-12 08:00:00,35.5,19.2,30.13,SSW,202,6.0,10.0,51,0.00,,---,0.00,VWS V12.07,2013-12-12 16:00:00,
2013-12-12 08:10:00,35.5,19.2,30.13,SSW,202,10.0,10.0,51,0.00,,---,0.00,VWS V12.07,2013-12-12 16:10:00,
2013-12-12 08:20:00,35.5,19.2,30.12,South,180,3.0,3.0,51,0.00,,---,0.00,VWS V12.07,2013-12-12 16:20:00,
2013-12-12 08:30:00,37.3,20.4,30.12,South,180,2.0,7.0,50,0.00,,---,0.00,VWS V12.07,2013-12-12 16:30:00,
2013-12-12 08:40:00,37.3,20.4,30.12,SSW,202,5.0,12.0,50,0.00,,---,0.00,VWS V12.07,2013-12-12 16:40:00,
2013-12-12 08:50:00,37.5,20.6,30.10,SSW,202,9.0,14.0,50,0.00,,---,0.00,VWS V12.07,2013-12-12 16:50:00,
2013-12-12 09:00:00,37.6,20.2,30.10,SSW,202,8.0,12.0,49,0.00,,---,0.00,VWS V12.07,2013-12-12 17:00:00,
2013-12-12 09:10:00,38.0,19.6,30.10,South,180,11.0,16.0,47,0.00,,---,0.00,VWS V12.07,2013-12-12 17:10:00,
2013-12-12 09:20:00,38.6,22.0,30.11,South,180,5.0,13.0,51,0.00,,---,0.00,VWS V12.07,2013-12-12 17:20:00,
2013-12-12 09:30:00,38.0,20.5,30.11,South,180,3.0,7.0,49,0.00,,---,0.00,VWS V12.07,2013-12-12 17:30:00,
2013-12-12 09:40:00,38.0,22.0,30.11,SSW,202,5.0,8.0,52,0.00,,---,0.00,VWS V12.07,2013-12-12 17:40:00,
2013-12-12 09:50:00,38.5,22.4,30.11,SSW,202,6.0,8.0,52,0.00,,---,0.00,VWS V12.07,2013-12-12 17:50:00,
2013-12-12 10:00:00,39.5,21.5,30.09,South,180,5.0,10.0,48,0.00,,---,0.00,VWS V12.07,2013-12-12 18:00:00,
2013-12-12 10:10:00,39.5,19.9,30.09,SSW,202,5.0,5.0,45,0.00,,---,0.00,VWS V12.07,2013-12-12 18:10:00,
2013-12-12 10:20:00,40.5,20.3,30.09,South,180,4.0,7.0,44,0.00,,---,0.00,VWS V12.07,2013-12-12 18:20:00,
2013-12-12 10:30:00,41.2,21.0,30.09,South,180,5.0,6.0,44,0.00,,---,0.00,VWS V12.07,2013-12-12 18:30:00,
2013-12-12 10:40:00,41.6,21.3,30.09,South,180,5.0,11.0,44,0.00,,---,0.00,VWS V12.07,2013-12-12 18:40:00,
2013-12-12 10:50:00,41.6,20.2,30.08,South,180,3.0,6.0,42,0.00,,---,0.00,VWS V12.07,2013-12-12 18:50:00,
2013-12-12 11:00:00,41.8,20.4,30.09,South,180,4.0,7.0,42,0.00,,---,0.00,VWS V12.07,2013-12-12 19:00:00,
2013-12-12 11:10:00,41.8,20.4,30.09,South,180,3.0,3.0,42,0.00,,---,0.00,VWS V12.07,2013-12-12 19:10:00,
2013-12-12 11:20:00,41.8,20.4,30.09,SSW,202,3.0,3.0,42,0.00,,---,0.00,VWS V12.07,2013-12-12 19:20:00,
2013-12-12 11:30:00,40.6,19.3,30.08,SSW,202,8.0,10.0,42,0.00,,---,0.00,VWS V12.07,2013-12-12 19:30:00,
2013-12-12 11:40:00,40.6,19.3,30.08,SSW,202,11.0,11.0,42,0.00,,---,0.00,VWS V12.07,2013-12-12 19:40:00,
2013-12-12 11:50:00,40.6,0.0,30.14,SSW,202,0.0,0.0,0,0.00,,---,0.00,VWS V12.07,2013-12-12 19:50:00,
2013-12-12 12:00:00,40.6,0.0,30.14,SSW,202,0.0,0.0,0,0.00,,---,0.00,VWS V12.07,2013-12-12 20:00:00,
2013-12-12 12:10:00,40.6,0.0,30.14,South,180,10.0,10.0,0,0.00,,---,0.00,VWS V12.07,2013-12-12 20:10:00,
2013-12-12 12:20:00,40.6,0.0,29.84,South,180,0.0,0.0,0,0.00,,---,0.00,VWS V12.07,2013-12-12 20:20:00,
2013-12-12 12:30:00,40.6,0.0,29.84,South,180,0.0,0.0,0,0.00,,---,0.00,VWS V12.07,2013-12-12 20:30:00,
2013-12-12 12:40:00,40.6,0.0,29.84,South,180,0.0,0.0,0,0.00,,---,0.00,VWS V12.07,2013-12-12 20:40:00,
2013-12-12 12:50:00,40.6,0.0,29.85,South,180,5.0,5.0,0,0.00,,---,0.00,VWS V12.07,2013-12-12 20:50:00,
2013-12-12 13:00:00,40.6,0.0,29.85,South,180,0.0,0.0,0,0.00,,---,0.00,VWS V12.07,2013-12-12 21:00:00,
2013-12-12 13:10:00,40.6,0.0,29.85,South,180,0.0,0.0,0,0.00,,---,0.00,VWS V12.07,2013-12-12 21:10:00,
2013-12-12 13:20:00,40.6,0.0,30.15,South,180,0.0,0.0,0,0.00,,---,0.00,VWS V12.07,2013-12-12 21:20:00,
2013-12-12 13:30:00,40.6,0.0,30.15,South,180,0.0,0.0,0,0.00,,---,0.00,VWS V12.07,2013-12-12 21:30:00,
2013-12-12 13:40:00,40.6,0.0,30.15,SSE,158,2.0,3.0,0,0.00,,---,0.00,VWS V12.07,2013-12-12 21:40:00,
2013-12-12 13:50:00,39.5,0.0,30.16,SSE,158,2.0,4.0,0,0.00,,---,0.00,VWS V12.07,2013-12-12 21:50:00,
2013-12-12 14:00:00,37.8,21.3,30.12,SSE,158,0.0,2.0,51,0.00,,---,0.00,VWS V12.07,2013-12-12 22:00:00,
2013-12-12 14:10:00,37.6,22.9,30.12,SE,135,1.0,3.0,55,0.00,,---,0.00,VWS V12.07,2013-12-12 22:10:00,
2013-12-12 14:20:00,36.9,22.3,30.13,SE,135,0.0,0.0,55,0.00,,---,0.00,VWS V12.07,2013-12-12 22:20:00,
2013-12-12 14:30:00,35.9,21.3,30.15,SE,135,0.0,2.0,55,0.00,,---,0.00,VWS V12.07,2013-12-12 22:30:00,
2013-12-12 14:40:00,36.5,21.9,30.15,South,180,1.0,5.0,55,0.00,,---,0.00,VWS V12.07,2013-12-12 22:40:00,
2013-12-12 14:50:00,36.5,21.9,30.16,South,180,5.0,7.0,55,0.00,,---,0.00,VWS V12.07,2013-12-12 22:50:00,
2013-12-12 15:00:00,36.8,22.2,30.17,South,180,2.0,3.0,55,0.00,,---,0.00,VWS V12.07,2013-12-12 23:00:00,
2013-12-12 15:10:00,36.5,21.9,30.17,SSW,202,5.0,8.0,55,0.00,,---,0.00,VWS V12.07,2013-12-12 23:10:00,
2013-12-12 15:20:00,36.3,21.7,30.17,South,180,5.0,6.0,55,0.00,,---,0.00,VWS V12.07,2013-12-12 23:20:00,
2013-12-12 15:30:00,36.3,21.7,30.18,South,180,6.0,7.0,55,0.00,,---,0.00,VWS V12.07,2013-12-12 23:30:00,
2013-12-12 15:40:00,36.3,21.7,30.18,South,180,6.0,7.0,55,0.00,,---,0.00,VWS V12.07,2013-12-12 23:40:00,
2013-12-12 15:50:00,35.8,27.3,30.18,South,180,5.0,5.0,71,0.00,,---,0.00,VWS V12.07,2013-12-12 23:50:00,
2013-12-12 16:00:00,35.8,27.3,30.18,South,180,0.0,0.0,71,0.00,,---,0.00,VWS V12.07,2013-12-13 00:00:00,
2013-12-12 16:10:00,35.8,0.0,30.18,South,180,0.0,0.0,0,0.00,,---,0.00,VWS V12.07,2013-12-13 00:10:00,
2013-12-12 16:20:00,34.6,0.0,30.18,South,180,8.0,10.0,0,0.00,,---,0.00,VWS V12.07,2013-12-13 00:20:00,
2013-12-12 16:30:00,34.6,0.0,30.15,South,180,5.0,6.0,0,0.00,,---,0.00,VWS V12.07,2013-12-13 00:30:00,
2013-12-12 16:40:00,34.6,0.0,30.15,South,180,4.0,6.0,0,0.00,,---,0.00,VWS V12.07,2013-12-13 00:40:00,
2013-12-12 16:50:00,34.1,27.7,30.18,South,180,4.0,7.0,77,0.00,,---,0.00,VWS V12.07,2013-12-13 00:50:00,
2013-12-12 17:00:00,34.1,27.7,30.18,South,180,7.0,9.0,77,0.00,,---,0.00,VWS V12.07,2013-12-13 01:00:00,
2013-12-12 17:10:00,34.0,27.6,30.18,South,180,6.0,8.0,77,0.00,,---,0.00,VWS V12.07,2013-12-13 01:10:00,
2013-12-12 17:20:00,34.1,27.7,30.17,SSW,202,4.0,8.0,77,0.00,,---,0.00,VWS V12.07,2013-12-13 01:20:00,
2013-12-12 17:30:00,33.8,28.3,30.17,South,180,5.0,7.0,80,0.00,,---,0.00,VWS V12.07,2013-12-13 01:30:00,
2013-12-12 17:40:00,34.0,28.5,30.17,SSW,202,5.0,7.0,80,0.00,,---,0.00,VWS V12.07,2013-12-13 01:40:00,
2013-12-12 17:50:00,34.0,28.5,30.18,South,180,4.0,7.0,80,0.00,,---,0.00,VWS V12.07,2013-12-13 01:50:00,
2013-12-12 18:00:00,34.0,28.5,30.18,South,180,1.0,3.0,80,0.00,,---,0.00,VWS V12.07,2013-12-13 02:00:00,
2013-12-12 18:10:00,32.8,27.3,30.18,South,180,3.0,5.0,80,0.00,,---,0.00,VWS V12.07,2013-12-13 02:10:00,
2013-12-12 18:20:00,34.1,28.6,30.17,South,180,8.0,12.0,80,0.00,,---,0.00,VWS V12.07,2013-12-13 02:20:00,
2013-12-12 18:30:00,34.7,28.2,30.16,SSW,202,8.0,13.0,77,0.00,,---,0.00,VWS V12.07,2013-12-13 02:30:00,
2013-12-12 18:40:00,34.6,28.1,30.16,SSW,202,9.0,12.0,77,0.00,,---,0.00,VWS V12.07,2013-12-13 02:40:00,
2013-12-12 18:50:00,34.9,27.8,30.16,SSW,202,11.0,18.0,75,0.00,,---,0.00,VWS V12.07,2013-12-13 02:50:00,
2013-12-12 19:00:00,34.3,27.2,30.17,South,180,10.0,14.0,75,0.00,,---,0.00,VWS V12.07,2013-12-13 03:00:00,
2013-12-12 19:10:00,34.1,27.0,30.17,South,180,7.0,10.0,75,0.00,,---,0.00,VWS V12.07,2013-12-13 03:10:00,
2013-12-12 19:20:00,34.3,27.2,30.15,South,180,9.0,12.0,75,0.00,,---,0.00,VWS V12.07,2013-12-13 03:20:00,
2013-12-12 19:30:00,34.4,27.3,30.15,SSW,202,10.0,12.0,75,0.00,,---,0.00,VWS V12.07,2013-12-13 03:30:00,
2013-12-12 19:40:00,34.4,27.3,30.15,South,180,7.0,12.0,75,0.00,,---,0.00,VWS V12.07,2013-12-13 03:40:00,
2013-12-12 19:50:00,35.0,27.9,30.15,South,180,9.0,14.0,75,0.00,,---,0.00,VWS V12.07,2013-12-13 03:50:00,
2013-12-12 20:00:00,34.9,27.8,30.15,SSW,202,10.0,12.0,75,0.00,,---,0.00,VWS V12.07,2013-12-13 04:00:00,
2013-12-12 20:10:00,34.4,27.3,30.15,South,180,9.0,13.0,75,0.00,,---,0.00,VWS V12.07,2013-12-13 04:10:00,
2013-12-12 20:20:00,34.9,27.8,30.14,South,180,10.0,16.0,75,0.00,,---,0.00,VWS V12.07,2013-12-13 04:20:00,
2013-12-12 20:30:00,35.2,28.1,30.14,SSW,202,9.0,17.0,75,0.00,,---,0.00,VWS V12.07,2013-12-13 04:30:00,
2013-12-12 20:40:00,35.5,28.4,30.14,South,180,7.0,12.0,75,0.00,,---,0.00,VWS V12.07,2013-12-13 04:40:00,
2013-12-12 20:50:00,35.5,28.4,30.14,South,180,4.0,7.0,75,0.00,,---,0.00,VWS V12.07,2013-12-13 04:50:00,
2013-12-12 21:00:00,35.5,28.4,30.14,South,180,7.0,11.0,75,0.00,,---,0.00,VWS V12.07,2013-12-13 05:00:00,
2013-12-12 21:10:00,36.0,28.9,30.14,SSW,202,8.0,12.0,75,0.00,,---,0.00,VWS V12.07,2013-12-13 05:10:00,
2013-12-12 21:20:00,36.2,28.7,30.14,South,180,8.0,14.0,74,0.00,,---,0.00,VWS V12.07,2013-12-13 05:20:00,
2013-12-12 21:30:00,36.2,28.7,30.14,South,180,6.0,7.0,74,0.00,,---,0.00,VWS V12.07,2013-12-13 05:30:00,
2013-12-12 21:40:00,36.3,28.8,30.14,South,180,4.0,6.0,74,0.00,,---,0.00,VWS V12.07,2013-12-13 05:40:00,
2013-12-12 21:50:00,36.3,29.1,30.15,South,180,3.0,10.0,75,0.00,,---,0.00,VWS V12.07,2013-12-13 05:50:00,
2013-12-12 22:00:00,36.3,28.8,30.15,SSW,202,4.0,11.0,74,0.00,,---,0.00,VWS V12.07,2013-12-13 06:00:00,
2013-12-12 22:10:00,36.5,29.0,30.15,South,180,8.0,13.0,74,0.00,,---,0.00,VWS V12.07,2013-12-13 06:10:00,
2013-12-12 22:20:00,36.2,28.7,30.14,South,180,5.0,10.0,74,0.00,,---,0.00,VWS V12.07,2013-12-13 06:20:00,
2013-12-12 22:30:00,36.0,28.5,30.14,SSW,202,6.0,14.0,74,0.00,,---,0.00,VWS V12.07,2013-12-13 06:30:00,
2013-12-12 22:40:00,35.9,29.1,30.14,South,180,6.0,14.0,76,0.00,,---,0.00,VWS V12.07,2013-12-13 06:40:00,
2013-12-12 22:50:00,35.6,28.5,30.14,SSW,202,7.0,12.0,75,0.00,,---,0.00,VWS V12.07,2013-12-13 06:50:00,
2013-12-12 23:00:00,35.3,28.8,30.15,SSW,202,5.0,10.0,77,0.00,,---,0.00,VWS V12.07,2013-12-13 07:00:00,
2013-12-12 23:10:00,34.9,28.4,30.15,SSW,202,5.0,12.0,77,0.00,,---,0.00,VWS V12.07,2013-12-13 07:10:00,
2013-12-12 23:20:00,34.9,28.1,30.18,SSW,202,6.0,13.0,76,0.00,,---,0.00,VWS V12.07,2013-12-13 07:20:00,
2013-12-12 23:30:00,34.9,28.1,30.18,SSW,202,7.0,17.0,76,0.00,,---,0.00,VWS V12.07,2013-12-13 07:30:00,
2013-12-12 23:40:00,35.0,28.2,30.18,SSW,202,8.0,12.0,76,0.00,,---,0.00,VWS V12.07,2013-12-13 07:40:00,
2013-12-12 23:50:00,35.0,28.2,30.19,South,180,9.0,14.0,76,0.00,,---,0.00,VWS V12.07,2013-12-13 07:50:00,